createdAt,value
2023-09-06T00:02:20.341Z,4.72
2023-09-06T00:04:47.324Z,5.29
2023-09-06T00:07:14.166Z,4.51
2023-09-06T00:09:40.887Z,4.79
2023-09-06T00:12:07.683Z,4.72
2023-09-06T00:14:35.677Z,4.39
2023-09-06T00:17:02.410Z,4.81
2023-09-06T00:19:29.104Z,4.39
2023-09-06T00:21:55.835Z,4.69
2023-09-06T00:24:22.540Z,4.35
2023-09-06T00:26:49.220Z,4.25
2023-09-06T00:29:15.951Z,4.71
2023-09-06T00:31:44.016Z,4.52
2023-09-06T00:34:10.708Z,4.67
2023-09-06T00:36:37.542Z,4.90
2023-09-06T00:39:04.667Z,4.59
2023-09-06T00:41:31.347Z,4.50
2023-09-06T00:43:58.026Z,4.58
2023-09-06T00:46:24.767Z,4.68
2023-09-06T00:48:52.825Z,4.51
2023-09-06T00:51:19.566Z,4.61
2023-09-06T00:53:46.221Z,4.69
2023-09-06T00:56:12.896Z,4.47
2023-09-06T00:58:39.559Z,4.11
2023-09-06T01:01:06.450Z,4.53
2023-09-06T01:03:33.400Z,4.56
2023-09-06T01:06:05.738Z,4.51
2023-09-06T01:08:36.156Z,4.35
2023-09-06T01:11:15.158Z,4.20
2023-09-06T01:13:41.959Z,4.64
2023-09-06T01:16:09.014Z,4.68
2023-09-06T01:18:35.899Z,4.75
2023-09-06T01:21:06.155Z,4.59
2023-09-06T01:23:35.804Z,4.43
2023-09-06T01:26:02.502Z,4.71
2023-09-06T01:28:29.632Z,4.72
2023-09-06T01:30:56.688Z,4.59
2023-09-06T01:33:23.473Z,4.48
2023-09-06T01:35:50.617Z,4.80
2023-09-06T01:38:17.266Z,4.69
2023-09-06T01:40:45.477Z,4.82
2023-09-06T01:43:12.211Z,4.40
2023-09-06T01:45:44.980Z,4.46
2023-09-06T01:48:11.726Z,4.53
2023-09-06T01:50:38.473Z,4.47
2023-09-06T01:53:05.172Z,4.46
2023-09-06T01:55:31.855Z,4.50
2023-09-06T01:57:59.913Z,4.54
2023-09-06T02:00:26.650Z,4.56
2023-09-06T02:02:53.450Z,4.62
2023-09-06T02:05:20.338Z,4.94
2023-09-06T02:07:47.458Z,4.83
2023-09-06T02:10:14.175Z,4.92
2023-09-06T02:12:40.912Z,4.98
2023-09-06T02:15:09.811Z,4.72
2023-09-06T02:17:36.551Z,4.60
2023-09-06T02:20:03.537Z,4.71
2023-09-06T02:22:30.183Z,4.43
2023-09-06T02:24:57.000Z,4.65
2023-09-06T02:27:23.673Z,4.45
2023-09-06T02:29:50.411Z,4.69
2023-09-06T02:32:18.432Z,4.63
2023-09-06T02:34:45.140Z,4.76
2023-09-06T02:37:11.924Z,4.60
2023-09-06T02:39:38.679Z,4.96
2023-09-06T02:42:05.467Z,4.75
2023-09-06T02:44:32.295Z,4.65
2023-09-06T02:46:58.983Z,4.74
2023-09-06T02:49:26.970Z,4.50
2023-09-06T02:51:53.617Z,4.72
2023-09-06T02:54:20.262Z,4.66
2023-09-06T02:56:46.944Z,4.91
2023-09-06T02:59:13.656Z,4.94
2023-09-06T03:01:40.421Z,4.88
2023-09-06T03:04:07.697Z,4.81
2023-09-06T03:06:35.741Z,4.78
2023-09-06T03:09:06.071Z,4.73
2023-09-06T03:11:32.838Z,4.89
2023-09-06T03:13:59.501Z,4.99
2023-09-06T03:16:26.269Z,4.91
2023-09-06T03:18:52.984Z,4.99
2023-09-06T03:21:20.013Z,5.70
2023-09-06T03:23:48.064Z,6.57
2023-09-06T03:26:15.533Z,6.87
2023-09-06T03:28:42.852Z,6.97
2023-09-06T03:31:15.630Z,6.76
2023-09-06T03:33:42.421Z,6.65
2023-09-06T03:36:09.513Z,6.73
2023-09-06T03:38:36.983Z,6.06
2023-09-06T03:41:05.059Z,6.04
2023-09-06T03:43:31.996Z,5.58
2023-09-06T03:45:59.330Z,5.52
2023-09-06T03:48:26.224Z,5.39
2023-09-06T03:50:55.311Z,5.12
2023-09-06T03:53:24.371Z,5.01
2023-09-06T03:55:52.658Z,5.30
2023-09-06T03:58:21.051Z,5.26
2023-09-06T04:00:48.179Z,5.08
2023-09-06T04:03:24.708Z,4.94
2023-09-06T04:05:52.689Z,5.43
2023-09-06T04:08:21.158Z,5.56
2023-09-06T04:10:53.405Z,5.72
2023-09-06T04:13:21.422Z,5.77
2023-09-06T04:15:48.745Z,5.87
2023-09-06T04:18:15.809Z,5.74
2023-09-06T04:20:43.813Z,5.60
2023-09-06T04:23:10.834Z,5.35
2023-09-06T04:25:41.060Z,5.09
2023-09-06T04:28:08.492Z,5.15
2023-09-06T04:30:38.005Z,4.96
2023-09-06T04:33:05.242Z,5.16
2023-09-06T04:35:33.853Z,5.92
2023-09-06T04:38:01.170Z,6.54
2023-09-06T04:40:29.210Z,6.71
2023-09-06T04:42:55.963Z,7.13
2023-09-06T04:45:23.253Z,6.73
2023-09-06T04:47:51.452Z,6.54
2023-09-06T04:50:18.275Z,6.58
2023-09-06T04:52:45.994Z,6.46
2023-09-06T04:55:13.184Z,6.83
2023-09-06T04:57:40.189Z,6.27
2023-09-06T05:00:09.562Z,6.08
2023-09-06T05:02:36.457Z,6.15
2023-09-06T05:05:05.227Z,6.34
2023-09-06T05:07:32.079Z,6.76
2023-09-06T05:10:01.004Z,6.87
2023-09-06T05:12:27.756Z,7.05
2023-09-06T05:14:54.458Z,6.60
2023-09-06T05:17:21.132Z,8.41
2023-09-06T05:19:51.157Z,7.47
2023-09-06T05:22:20.094Z,8.05
2023-09-06T05:24:46.824Z,7.79
2023-09-06T05:27:14.237Z,7.61
2023-09-06T05:29:40.881Z,6.76
2023-09-06T05:32:07.731Z,7.25
2023-09-06T05:34:34.498Z,6.70
2023-09-06T05:37:04.802Z,6.86
2023-09-06T05:39:32.809Z,6.46
2023-09-06T05:42:00.421Z,6.80
2023-09-06T05:44:27.205Z,6.91
2023-09-06T05:46:53.951Z,6.86
2023-09-06T05:49:22.329Z,6.65
2023-09-06T05:51:49.193Z,6.89
2023-09-06T05:54:16.355Z,7.53
2023-09-06T05:56:46.354Z,8.03
2023-09-06T05:59:13.315Z,8.35
2023-09-06T06:01:40.401Z,8.08
2023-09-06T06:04:07.215Z,7.66
2023-09-06T06:06:34.063Z,7.43
2023-09-06T06:09:00.792Z,8.31
2023-09-06T06:11:28.527Z,8.47
2023-09-06T06:14:09.824Z,8.04
2023-09-06T06:16:38.393Z,7.58
2023-09-06T06:19:05.108Z,7.83
2023-09-06T06:21:31.852Z,6.78
2023-09-06T06:23:58.640Z,6.57
2023-09-06T06:26:25.399Z,6.29
2023-09-06T06:28:52.513Z,6.04
2023-09-06T06:31:20.629Z,5.67
2023-09-06T06:33:47.333Z,5.93
2023-09-06T06:36:13.993Z,6.54
2023-09-06T06:38:40.665Z,7.15
2023-09-06T06:41:14.055Z,7.57
2023-09-06T06:43:40.812Z,6.78
2023-09-06T06:46:21.900Z,6.05
2023-09-06T06:48:49.919Z,6.04
2023-09-06T06:51:16.603Z,6.60
2023-09-06T06:53:43.154Z,6.01
2023-09-06T06:56:09.877Z,6.21
2023-09-06T06:58:36.596Z,5.96
2023-09-06T07:01:03.355Z,5.49
2023-09-06T07:03:30.090Z,5.87
2023-09-06T07:05:58.251Z,6.07
2023-09-06T07:08:24.980Z,6.19
2023-09-06T07:10:51.707Z,6.31
2023-09-06T07:13:18.441Z,6.22
2023-09-06T07:15:45.209Z,6.03
2023-09-06T07:18:12.028Z,5.77
2023-09-06T07:20:38.851Z,5.59
2023-09-06T07:23:06.904Z,5.45
2023-09-06T07:25:33.625Z,5.51
2023-09-06T07:28:00.337Z,5.23
2023-09-06T07:30:27.034Z,5.32
2023-09-06T07:32:53.835Z,5.17
2023-09-06T07:35:20.629Z,5.37
2023-09-06T07:37:47.517Z,5.10
2023-09-06T07:40:15.681Z,5.15
2023-09-06T07:42:42.404Z,4.68
2023-09-06T07:45:10.002Z,5.28
2023-09-06T07:47:36.875Z,4.98
2023-09-06T07:50:03.966Z,5.29
2023-09-06T07:52:30.629Z,5.14
2023-09-06T07:54:59.060Z,5.24
2023-09-06T07:57:27.082Z,5.42
2023-09-06T07:59:53.778Z,5.72
2023-09-06T08:02:20.552Z,5.64
2023-09-06T08:04:48.371Z,5.56
2023-09-06T08:07:15.262Z,5.49
2023-09-06T08:09:41.926Z,5.85
2023-09-06T08:12:08.656Z,6.10
2023-09-06T08:14:36.676Z,6.14
2023-09-06T08:17:03.745Z,6.23
2023-09-06T08:19:30.454Z,5.91
2023-09-06T08:21:57.114Z,5.93
2023-09-06T08:24:23.817Z,5.77
2023-09-06T08:26:50.543Z,5.61
2023-09-06T08:29:17.273Z,6.00
2023-09-06T08:31:45.408Z,5.67
2023-09-06T08:34:12.173Z,5.59
2023-09-06T08:36:38.847Z,5.69
2023-09-06T08:39:05.631Z,6.03
2023-09-06T08:41:32.515Z,6.52
2023-09-06T08:43:59.224Z,6.32
2023-09-06T08:46:28.353Z,6.20
2023-09-06T08:48:56.596Z,5.78
2023-09-06T08:51:23.669Z,5.79
2023-09-06T08:53:50.344Z,5.47
2023-09-06T08:56:17.005Z,6.22
2023-09-06T08:58:43.756Z,5.65
2023-09-06T09:01:10.622Z,5.69
2023-09-06T09:03:37.520Z,5.92
2023-09-06T09:06:05.691Z,5.70
2023-09-06T09:08:32.386Z,6.23
2023-09-06T09:11:09.163Z,6.18
2023-09-06T09:13:35.880Z,6.16
2023-09-06T09:16:08.586Z,6.10
2023-09-06T09:18:36.085Z,6.03
2023-09-06T09:21:02.880Z,6.16
2023-09-06T09:23:31.251Z,6.21
2023-09-06T09:25:58.103Z,6.02
2023-09-06T09:28:24.991Z,5.90
2023-09-06T09:30:51.813Z,5.87
2023-09-06T09:33:19.250Z,6.33
2023-09-06T09:35:47.653Z,6.19
2023-09-06T09:38:14.350Z,6.30
2023-09-06T09:40:52.791Z,6.25
2023-09-06T09:43:25.022Z,6.24
2023-09-06T09:45:51.793Z,6.20
2023-09-06T09:48:18.812Z,6.43
2023-09-06T09:50:45.929Z,6.27
2023-09-06T09:53:20.346Z,6.30
2023-09-06T09:55:54.046Z,6.03
2023-09-06T09:58:20.899Z,6.19
2023-09-06T10:00:47.610Z,6.30
2023-09-06T10:03:14.514Z,6.83
2023-09-06T10:05:41.404Z,6.47
2023-09-06T10:08:08.864Z,6.53
2023-09-06T10:10:36.215Z,6.58
2023-09-06T10:13:04.551Z,6.74
2023-09-06T10:15:31.214Z,6.66
2023-09-06T10:17:57.966Z,6.50
2023-09-06T10:20:24.721Z,6.76
2023-09-06T10:22:52.070Z,6.49
2023-09-06T10:25:18.927Z,6.43
2023-09-06T10:27:46.217Z,6.07
2023-09-06T10:30:14.608Z,5.95
2023-09-06T10:32:41.358Z,6.20
2023-09-06T10:35:19.644Z,6.08
2023-09-06T10:38:03.034Z,6.00
2023-09-06T10:41:02.957Z,6.14
2023-09-06T10:43:30.208Z,6.51
2023-09-06T10:45:58.387Z,6.68
2023-09-06T10:48:25.613Z,6.37
2023-09-06T10:51:04.350Z,6.33
2023-09-06T10:53:31.218Z,6.20
2023-09-06T10:55:57.924Z,6.17
2023-09-06T10:58:24.670Z,6.62
2023-09-06T11:01:16.194Z,6.82
2023-09-06T11:03:47.008Z,6.79
2023-09-06T11:06:13.704Z,6.21
2023-09-06T11:08:40.371Z,6.85
2023-09-06T11:11:08.141Z,6.55
2023-09-06T11:13:34.964Z,6.35
2023-09-06T11:16:02.257Z,6.11
2023-09-06T11:18:30.896Z,6.46
2023-09-06T11:20:58.091Z,5.86
2023-09-06T11:23:24.763Z,5.84
2023-09-06T11:25:55.739Z,6.31
2023-09-06T11:28:22.469Z,6.14
2023-09-06T11:30:49.500Z,5.99
2023-09-06T11:33:16.558Z,5.59
2023-09-06T11:35:45.365Z,5.65
2023-09-06T11:38:12.060Z,5.66
2023-09-06T11:40:38.740Z,6.08
2023-09-06T11:43:06.484Z,5.80
2023-09-06T11:45:33.421Z,5.68
2023-09-06T11:48:00.203Z,6.01
2023-09-06T11:50:26.871Z,6.03
2023-09-06T11:52:58.408Z,5.96
2023-09-06T11:55:25.778Z,5.43
2023-09-06T11:57:52.439Z,5.81
2023-09-06T12:00:19.323Z,5.62
2023-09-06T12:02:46.062Z,5.47
2023-09-06T12:05:12.785Z,5.76
2023-09-06T12:07:39.441Z,6.38
2023-09-06T12:10:08.108Z,5.95
2023-09-06T12:12:35.293Z,5.64
2023-09-06T12:15:02.114Z,5.21
2023-09-06T12:17:28.869Z,5.59
2023-09-06T12:19:58.842Z,5.43
2023-09-06T12:22:25.560Z,5.82
2023-09-06T12:24:52.203Z,5.33
2023-09-06T12:27:20.275Z,5.41
2023-09-06T12:29:46.973Z,5.27
2023-09-06T12:32:13.825Z,4.94
2023-09-06T12:34:41.052Z,5.29
2023-09-06T12:37:07.795Z,5.06
2023-09-06T12:39:34.529Z,5.20
2023-09-06T12:42:01.235Z,5.18
2023-09-06T12:44:29.390Z,4.85
2023-09-06T12:46:56.168Z,4.96
2023-09-06T12:49:22.874Z,4.61
2023-09-06T12:51:49.530Z,4.55
2023-09-06T12:54:16.201Z,4.72
2023-09-06T12:56:42.888Z,4.78
2023-09-06T12:59:09.737Z,4.81
2023-09-06T13:01:37.847Z,4.71
2023-09-06T13:04:04.976Z,4.68
2023-09-06T13:06:31.764Z,4.90
2023-09-06T13:08:58.420Z,4.97
2023-09-06T13:11:25.117Z,4.68
2023-09-06T13:13:51.786Z,4.58
2023-09-06T13:16:18.540Z,4.78
2023-09-06T13:18:46.680Z,4.92
2023-09-06T13:21:13.540Z,4.83
2023-09-06T13:23:40.596Z,5.10
2023-09-06T13:26:07.276Z,5.02
2023-09-06T13:28:33.954Z,5.21
2023-09-06T13:31:00.679Z,4.98
2023-09-06T13:33:29.412Z,5.46
2023-09-06T13:35:57.847Z,4.99
2023-09-06T13:38:24.587Z,5.13
2023-09-06T13:40:51.331Z,5.20
2023-09-06T13:43:18.077Z,4.94
2023-09-06T13:45:44.794Z,5.38
2023-09-06T13:48:11.676Z,4.90
2023-09-06T13:50:38.403Z,4.99
2023-09-06T13:53:06.421Z,4.99
2023-09-06T13:55:33.143Z,4.91
2023-09-06T13:57:59.835Z,4.89
2023-09-06T14:00:26.633Z,4.84
2023-09-06T14:02:53.472Z,4.70
2023-09-06T14:05:20.323Z,4.47
2023-09-06T14:07:47.105Z,4.54
2023-09-06T14:10:15.341Z,4.27
2023-09-06T14:12:42.008Z,4.41
2023-09-06T14:15:09.621Z,4.80
2023-09-06T14:17:36.388Z,4.81
2023-09-06T14:20:03.775Z,4.85
2023-09-06T14:22:30.522Z,4.80
2023-09-06T14:24:57.180Z,4.77
2023-09-06T14:27:25.240Z,4.64
2023-09-06T14:29:52.368Z,4.68
2023-09-06T14:32:19.103Z,5.21
2023-09-06T14:34:45.801Z,5.25
2023-09-06T14:37:12.517Z,5.56
2023-09-06T14:39:39.241Z,4.93
2023-09-06T14:42:06.145Z,5.15
2023-09-06T14:44:34.286Z,5.41
2023-09-06T14:47:01.017Z,5.46
2023-09-06T14:49:29.461Z,5.14
2023-09-06T14:51:56.132Z,5.19
2023-09-06T14:54:22.808Z,5.30
2023-09-06T14:56:49.557Z,17.19
2023-09-06T14:59:18.608Z,20.57
2023-09-06T15:01:46.640Z,7.96
2023-09-06T15:04:13.396Z,5.37
2023-09-06T15:06:57.946Z,6.14
2023-09-06T15:09:25.289Z,5.76
2023-09-06T15:11:52.525Z,5.77
2023-09-06T15:14:19.232Z,5.46
2023-09-06T15:16:47.657Z,6.22
2023-09-06T15:19:14.533Z,5.55
2023-09-06T15:21:41.280Z,5.94
2023-09-06T15:24:08.199Z,5.63
2023-09-06T15:26:34.861Z,5.89
2023-09-06T15:29:01.586Z,5.90
2023-09-06T15:31:28.255Z,5.84
2023-09-06T15:33:56.409Z,5.63
2023-09-06T15:36:23.151Z,5.91
2023-09-06T15:38:49.919Z,5.40
2023-09-06T15:41:16.586Z,5.14
2023-09-06T15:43:43.314Z,4.48
2023-09-06T15:46:10.075Z,4.66
2023-09-06T15:48:37.006Z,5.17
2023-09-06T15:51:05.164Z,5.35
2023-09-06T15:53:32.101Z,5.46
2023-09-06T15:55:58.835Z,5.36
2023-09-06T15:58:25.616Z,5.11
2023-09-06T16:00:52.303Z,5.08
2023-09-06T16:03:19.083Z,4.84
2023-09-06T16:05:45.896Z,4.93
2023-09-06T16:08:13.985Z,4.86
2023-09-06T16:10:40.685Z,5.08
2023-09-06T16:13:07.360Z,4.75
2023-09-06T16:15:34.034Z,4.78
2023-09-06T16:18:00.912Z,4.78
2023-09-06T16:20:27.654Z,4.65
2023-09-06T16:22:54.345Z,4.79
2023-09-06T16:25:22.341Z,4.74
2023-09-06T16:27:49.069Z,4.80
2023-09-06T16:30:15.884Z,4.72
2023-09-06T16:32:42.892Z,5.04
2023-09-06T16:35:09.952Z,4.72
2023-09-06T16:37:37.060Z,4.86
2023-09-06T16:40:04.423Z,4.93
2023-09-06T16:42:32.490Z,4.85
2023-09-06T16:44:59.288Z,5.20
2023-09-06T16:47:25.964Z,4.71
2023-09-06T16:49:52.645Z,4.81
2023-09-06T16:52:19.396Z,4.91
2023-09-06T16:54:46.195Z,4.64
2023-09-06T16:57:12.915Z,4.68
2023-09-06T16:59:40.968Z,4.80
2023-09-06T17:02:07.734Z,4.77
2023-09-06T17:04:34.403Z,4.40
2023-09-06T17:07:01.187Z,4.76
2023-09-06T17:09:27.845Z,4.79
2023-09-06T17:11:54.558Z,4.74
2023-09-06T17:14:21.216Z,5.00
2023-09-06T17:16:49.480Z,4.90
2023-09-06T17:19:16.332Z,4.89
2023-09-06T17:21:43.100Z,5.27
2023-09-06T17:24:10.096Z,5.03
2023-09-06T17:26:37.038Z,4.90
2023-09-06T17:29:03.808Z,5.09
2023-09-06T17:31:30.659Z,5.11
2023-09-06T17:33:58.745Z,4.91
2023-09-06T17:36:25.405Z,5.60
2023-09-06T17:38:52.147Z,7.54
2023-09-06T17:41:18.916Z,9.05
2023-09-06T17:43:45.631Z,8.23
2023-09-06T17:46:12.329Z,6.60
2023-09-06T17:48:39.328Z,5.85
2023-09-06T17:51:07.526Z,5.64
2023-09-06T17:53:34.946Z,6.02
2023-09-06T17:56:02.270Z,5.98
2023-09-06T17:58:29.245Z,5.86
2023-09-06T18:00:56.096Z,6.30
2023-09-06T18:03:22.993Z,13.84
2023-09-06T18:05:50.792Z,10.69
2023-09-06T18:08:19.000Z,6.31
2023-09-06T18:10:45.719Z,5.91
2023-09-06T18:13:12.456Z,5.68
2023-09-06T18:15:39.378Z,5.33
2023-09-06T18:18:06.202Z,5.34
2023-09-06T18:20:33.029Z,5.35
2023-09-06T18:22:59.717Z,5.36
2023-09-06T18:25:27.708Z,5.25
2023-09-06T18:27:54.369Z,5.23
2023-09-06T18:30:22.112Z,5.45
2023-09-06T18:32:49.678Z,5.32
2023-09-06T18:35:16.433Z,5.32
2023-09-06T18:37:43.243Z,5.43
2023-09-06T18:40:10.548Z,6.46
2023-09-06T18:42:38.531Z,6.53
2023-09-06T18:45:06.305Z,6.20
2023-09-06T18:47:33.178Z,6.18
2023-09-06T18:50:00.143Z,6.10
2023-09-06T18:52:26.868Z,6.34
2023-09-06T18:54:53.559Z,6.06
2023-09-06T18:57:20.210Z,6.17
2023-09-06T18:59:48.325Z,6.32
2023-09-06T19:02:15.082Z,6.09
2023-09-06T19:04:43.122Z,6.03
2023-09-06T19:07:09.770Z,6.21
2023-09-06T19:09:36.433Z,6.27
2023-09-06T19:12:03.312Z,6.87
2023-09-06T19:14:30.123Z,6.44
2023-09-06T19:16:58.259Z,6.43
2023-09-06T19:19:24.995Z,6.26
2023-09-06T19:21:51.659Z,6.64
2023-09-06T19:24:18.335Z,6.39
2023-09-06T19:26:45.021Z,6.72
2023-09-06T19:29:11.770Z,6.90
2023-09-06T19:31:38.444Z,7.05
2023-09-06T19:34:06.544Z,6.89
2023-09-06T19:36:33.247Z,6.90
2023-09-06T19:38:59.917Z,6.83
2023-09-06T19:41:26.631Z,10.33
2023-09-06T19:43:53.333Z,8.39
2023-09-06T19:46:20.049Z,7.99
2023-09-06T19:49:03.524Z,7.99
2023-09-06T19:51:34.066Z,7.61
2023-09-06T19:54:00.698Z,6.91
2023-09-06T19:56:27.468Z,7.03
2023-09-06T19:58:54.149Z,6.87
2023-09-06T20:01:21.288Z,7.05
2023-09-06T20:03:48.103Z,7.13
2023-09-06T20:06:14.912Z,7.18
2023-09-06T20:08:42.976Z,7.18
2023-09-06T20:11:09.674Z,7.17
2023-09-06T20:13:36.338Z,7.15
2023-09-06T20:16:03.131Z,7.08
2023-09-06T20:18:30.009Z,7.34
2023-09-06T20:20:56.937Z,6.89
2023-09-06T20:23:23.729Z,7.00
2023-09-06T20:25:54.540Z,7.02
2023-09-06T20:28:21.260Z,6.70
2023-09-06T20:30:47.947Z,7.05
2023-09-06T20:33:14.745Z,6.58
2023-09-06T20:35:42.996Z,6.45
2023-09-06T20:38:09.730Z,7.02
2023-09-06T20:40:36.600Z,6.55
2023-09-06T20:43:04.696Z,6.67
2023-09-06T20:45:31.485Z,6.81
2023-09-06T20:47:58.236Z,6.88
2023-09-06T20:50:24.929Z,7.29
2023-09-06T20:52:51.569Z,7.32
2023-09-06T20:55:18.247Z,7.39
2023-09-06T20:57:44.966Z,7.70
2023-09-06T21:00:13.353Z,7.47
2023-09-06T21:02:40.113Z,7.69
2023-09-06T21:05:07.275Z,7.80
2023-09-06T21:07:33.974Z,7.74
2023-09-06T21:10:00.692Z,7.63
2023-09-06T21:12:27.382Z,7.52
2023-09-06T21:14:54.176Z,7.27
2023-09-06T21:17:22.263Z,7.40
2023-09-06T21:19:49.223Z,7.37
2023-09-06T21:22:15.900Z,7.12
2023-09-06T21:24:42.645Z,7.07
2023-09-06T21:27:09.323Z,6.90
2023-09-06T21:29:35.969Z,6.57
2023-09-06T21:32:02.721Z,7.16
2023-09-06T21:34:30.852Z,7.15
2023-09-06T21:36:57.614Z,7.34
2023-09-06T21:39:24.338Z,7.08
2023-09-06T21:41:50.988Z,6.76
2023-09-06T21:44:17.667Z,7.38
2023-09-06T21:46:44.328Z,6.85
2023-09-06T21:49:10.996Z,7.12
2023-09-06T21:51:38.974Z,6.89
2023-09-06T21:54:05.809Z,6.61
2023-09-06T21:56:32.575Z,6.87
2023-09-06T21:58:59.292Z,6.79
2023-09-06T22:01:26.054Z,6.89
2023-09-06T22:04:11.304Z,6.90
2023-09-06T22:06:57.956Z,7.12
2023-09-06T22:09:44.422Z,7.01
2023-09-06T22:12:29.933Z,7.26
2023-09-06T22:14:56.606Z,6.94
2023-09-06T22:17:23.418Z,6.96
2023-09-06T22:19:50.180Z,6.92
2023-09-06T22:22:18.233Z,6.89
2023-09-06T22:24:44.974Z,6.71
2023-09-06T22:27:11.666Z,6.66
2023-09-06T22:29:38.457Z,6.54
2023-09-06T22:32:05.933Z,6.61
2023-09-06T22:34:32.670Z,6.74
2023-09-06T22:36:59.426Z,6.75
2023-09-06T22:39:27.473Z,6.68
2023-09-06T22:41:54.141Z,6.66
2023-09-06T22:44:20.846Z,6.46
2023-09-06T22:46:47.599Z,6.54
2023-09-06T22:49:14.418Z,6.72
2023-09-06T22:51:41.103Z,6.31
2023-09-06T22:54:07.842Z,6.20
2023-09-06T22:56:35.831Z,6.84
2023-09-06T22:59:02.905Z,6.29
2023-09-06T23:01:29.628Z,6.59
2023-09-06T23:03:56.443Z,6.98
2023-09-06T23:06:23.539Z,6.37
2023-09-06T23:08:50.236Z,6.71
2023-09-06T23:11:16.951Z,6.14
2023-09-06T23:13:44.922Z,6.75
2023-09-06T23:16:11.629Z,6.38
2023-09-06T23:18:38.698Z,6.25
2023-09-06T23:21:05.365Z,6.71
2023-09-06T23:23:32.012Z,6.50
2023-09-06T23:25:58.702Z,6.49
2023-09-06T23:28:25.381Z,6.42
2023-09-06T23:30:54.523Z,6.68
2023-09-06T23:33:21.356Z,6.38
2023-09-06T23:35:48.039Z,6.54
2023-09-06T23:38:14.669Z,6.77
2023-09-06T23:40:41.315Z,6.63
2023-09-06T23:43:07.982Z,6.77
2023-09-06T23:45:44.156Z,7.00
2023-09-06T23:48:12.177Z,7.07
2023-09-06T23:50:38.826Z,7.04
2023-09-06T23:53:05.497Z,6.83
2023-09-06T23:55:34.412Z,6.75
2023-09-06T23:58:01.105Z,6.68
